createdAt,value
2018-12-12T00:01:30.748Z,11.40
2018-12-12T00:04:41.652Z,10.00
2018-12-12T00:07:49.796Z,7.97
2018-12-12T00:10:58.191Z,9.70
2018-12-12T00:14:09.109Z,9.70
2018-12-12T00:17:12.468Z,7.60
2018-12-12T00:20:23.257Z,10.57
2018-12-12T00:23:31.537Z,11.13
2018-12-12T00:26:40.665Z,12.10
2018-12-12T00:32:56.245Z,8.93
2018-12-12T00:36:07.179Z,9.43
2018-12-12T00:39:16.242Z,8.93
2018-12-12T00:42:24.574Z,10.40
2018-12-12T00:45:35.572Z,13.97
2018-12-12T00:48:43.739Z,8.70
2018-12-12T00:51:54.714Z,12.00
2018-12-12T00:55:05.460Z,10.47
2018-12-12T00:58:08.716Z,11.03
2018-12-12T01:01:19.515Z,11.53
2018-12-12T01:04:28.736Z,11.03
2018-12-12T01:07:37.645Z,10.33
2018-12-12T01:10:51.629Z,12.30
2018-12-12T01:14:00.180Z,12.37
2018-12-12T01:17:03.429Z,12.57
2018-12-12T01:20:14.259Z,11.60
2018-12-12T01:23:23.166Z,11.03
2018-12-12T01:26:27.372Z,13.63
2018-12-12T01:29:36.276Z,11.63
2018-12-12T01:35:51.878Z,11.03
2018-12-12T01:39:00.721Z,10.03
2018-12-12T01:42:09.664Z,11.40
2018-12-12T01:45:17.856Z,11.07
2018-12-12T01:48:21.944Z,12.03
2018-12-12T01:51:30.833Z,11.07
2018-12-12T01:54:41.682Z,12.73
2018-12-12T01:57:45.966Z,12.90
2018-12-12T02:00:56.601Z,13.63
2018-12-12T02:04:07.596Z,15.77
2018-12-12T02:07:16.447Z,10.50
2018-12-12T02:10:27.603Z,12.30
2018-12-12T02:13:36.476Z,11.00
2018-12-12T02:16:40.613Z,13.87
2018-12-12T02:19:53.167Z,14.17
2018-12-12T02:23:04.127Z,12.47
2018-12-12T02:26:16.174Z,15.07
2018-12-12T02:29:27.063Z,14.10
2018-12-12T02:32:36.047Z,14.43
2018-12-12T02:35:47.064Z,12.63
2018-12-12T02:38:51.285Z,13.80
2018-12-12T02:42:02.204Z,13.13
2018-12-12T02:45:10.408Z,12.57
2018-12-12T02:48:19.484Z,14.37
2018-12-12T02:51:31.419Z,17.80
2018-12-12T02:54:39.668Z,13.00
2018-12-12T02:57:48.695Z,13.43
2018-12-12T03:00:57.569Z,14.47
2018-12-12T03:04:06.688Z,14.23
2018-12-12T03:07:15.652Z,15.83
2018-12-12T03:10:24.707Z,14.50
2018-12-12T03:13:33.592Z,14.20
2018-12-12T03:16:37.776Z,14.87
2018-12-12T03:19:48.588Z,15.17
2018-12-12T03:22:59.564Z,13.70
2018-12-12T03:26:08.676Z,16.10
2018-12-12T03:29:20.731Z,15.70
2018-12-12T03:32:29.677Z,16.07
2018-12-12T03:35:40.607Z,16.17
2018-12-12T03:38:49.607Z,17.53
2018-12-12T03:42:00.613Z,17.67
2018-12-12T03:45:09.736Z,18.37
2018-12-12T03:48:13.726Z,15.40
2018-12-12T03:51:24.484Z,18.00
2018-12-12T03:54:36.556Z,18.60
2018-12-12T03:57:40.057Z,17.63
2018-12-12T04:00:49.076Z,19.67
2018-12-12T04:03:59.980Z,21.63
2018-12-12T04:07:09.107Z,16.47
2018-12-12T04:10:20.050Z,18.83
2018-12-12T04:13:29.043Z,19.37
2018-12-12T04:16:32.303Z,20.83
2018-12-12T04:19:42.971Z,17.67
2018-12-12T04:22:55.756Z,15.00
2018-12-12T04:26:04.588Z,15.97
2018-12-12T04:29:08.681Z,16.67
2018-12-12T04:32:17.488Z,14.87
2018-12-12T04:35:26.529Z,14.67
2018-12-12T04:38:35.568Z,18.33
2018-12-12T04:41:46.599Z,18.63
2018-12-12T04:44:58.697Z,17.93
2018-12-12T04:48:07.750Z,18.67
2018-12-12T04:51:19.873Z,18.73
2018-12-12T04:54:31.935Z,20.67
2018-12-12T04:57:41.043Z,19.73
2018-12-12T05:00:49.337Z,19.07
2018-12-12T05:04:00.213Z,19.27
2018-12-12T05:07:08.390Z,20.77
2018-12-12T05:10:19.256Z,22.20
2018-12-12T05:13:30.228Z,20.33
2018-12-12T05:16:33.528Z,19.27
2018-12-12T05:19:44.285Z,20.70
2018-12-12T05:22:56.411Z,21.70
2018-12-12T05:26:07.360Z,23.47
2018-12-12T05:29:15.676Z,25.97
2018-12-12T05:32:24.813Z,22.93
2018-12-12T05:35:33.484Z,24.17
2018-12-12T05:38:37.767Z,23.07
2018-12-12T05:41:48.495Z,22.57
2018-12-12T05:44:59.339Z,25.47
2018-12-12T05:48:02.723Z,23.40
2018-12-12T05:51:13.523Z,23.43
2018-12-12T05:54:21.924Z,22.53
2018-12-12T05:57:30.920Z,23.10
2018-12-12T06:00:41.887Z,20.53
2018-12-12T06:03:52.857Z,21.80
2018-12-12T06:07:01.136Z,23.63
2018-12-12T06:10:09.326Z,23.57
2018-12-12T06:13:20.084Z,22.20
2018-12-12T06:16:29.055Z,22.87
2018-12-12T06:19:38.210Z,23.93
2018-12-12T06:22:47.216Z,23.10
2018-12-12T06:25:56.307Z,25.73
2018-12-12T06:29:05.440Z,21.07
2018-12-12T06:32:16.499Z,22.83
2018-12-12T06:35:27.436Z,23.00
2018-12-12T06:38:30.725Z,25.77
2018-12-12T06:41:43.193Z,25.00
2018-12-12T06:44:54.114Z,23.27
2018-12-12T06:47:58.380Z,22.40
2018-12-12T06:51:07.312Z,25.17
2018-12-12T06:54:19.468Z,22.00
2018-12-12T06:57:23.648Z,21.70
2018-12-12T07:00:34.296Z,22.63
2018-12-12T07:03:46.420Z,21.23
2018-12-12T07:06:54.711Z,20.90
2018-12-12T07:10:07.912Z,18.63
2018-12-12T07:13:16.885Z,17.70
2018-12-12T07:16:25.888Z,17.27
2018-12-12T07:19:38.027Z,19.93
2018-12-12T07:22:49.015Z,18.80
2018-12-12T07:26:00.106Z,15.67
2018-12-12T07:29:09.156Z,18.83
2018-12-12T07:32:25.849Z,13.67
2018-12-12T07:35:30.336Z,16.53
2018-12-12T07:38:39.381Z,16.10
2018-12-12T07:41:51.559Z,15.30
2018-12-12T07:45:03.747Z,10.30
2018-12-12T07:48:12.428Z,11.33
2018-12-12T07:51:21.479Z,12.07
2018-12-12T07:54:32.451Z,12.97
2018-12-12T07:57:36.628Z,14.67
2018-12-12T08:00:47.391Z,9.33
2018-12-12T08:03:58.244Z,11.43
2018-12-12T08:07:02.421Z,10.33
2018-12-12T08:10:13.356Z,10.93
2018-12-12T08:13:25.400Z,11.33
2018-12-12T08:16:28.729Z,13.80
2018-12-12T08:19:39.452Z,12.50
2018-12-12T08:22:50.379Z,12.00
2018-12-12T08:26:01.476Z,13.10
2018-12-12T08:29:10.547Z,13.13
2018-12-12T08:32:19.503Z,12.97
2018-12-12T08:35:30.315Z,10.63
2018-12-12T08:42:08.428Z,12.90
2018-12-12T08:45:20.627Z,10.93
2018-12-12T08:48:28.952Z,11.23
2018-12-12T08:51:39.823Z,12.53
2018-12-12T08:54:50.696Z,11.47
2018-12-12T08:57:59.791Z,14.00
2018-12-12T09:01:08.752Z,15.10
2018-12-12T09:04:19.608Z,14.50
2018-12-12T09:07:28.720Z,12.30
2018-12-12T09:10:37.724Z,11.80
2018-12-12T09:13:48.667Z,13.73
2018-12-12T09:16:57.671Z,13.30
2018-12-12T09:20:09.869Z,11.03
2018-12-12T09:23:18.164Z,11.23
2018-12-12T09:26:22.427Z,12.07
2018-12-12T09:29:33.271Z,13.27
2018-12-12T09:32:41.504Z,9.77
2018-12-12T09:35:53.094Z,11.67
2018-12-12T09:39:01.472Z,10.50
2018-12-12T09:42:10.512Z,11.77
2018-12-12T09:45:21.846Z,11.40
2018-12-12T09:48:30.292Z,12.47
2018-12-12T09:51:41.066Z,11.20
2018-12-12T09:54:51.805Z,12.47
2018-12-12T09:58:00.904Z,10.97
2018-12-12T10:01:11.748Z,11.10
2018-12-12T10:04:22.620Z,10.23
2018-12-12T10:07:31.644Z,9.97
2018-12-12T10:10:42.467Z,10.43
2018-12-12T10:13:50.615Z,9.73
2018-12-12T10:16:59.596Z,11.17
2018-12-12T10:20:10.492Z,8.00
2018-12-12T10:23:22.585Z,9.83
2018-12-12T10:26:31.785Z,8.87
2018-12-12T10:29:40.752Z,8.97
2018-12-12T10:32:52.829Z,9.37
2018-12-12T10:36:01.748Z,9.83
2018-12-12T10:39:10.675Z,9.93
2018-12-12T10:42:22.708Z,10.27
2018-12-12T10:45:33.653Z,9.80
2018-12-12T10:48:42.724Z,10.53
2018-12-12T10:51:53.701Z,11.43
2018-12-12T10:55:06.553Z,11.77
2018-12-12T10:58:09.952Z,9.87
2018-12-12T11:01:26.309Z,10.00
2018-12-12T11:04:36.768Z,11.23
2018-12-12T11:07:45.665Z,9.60
2018-12-12T11:10:54.633Z,9.73
2018-12-12T11:14:05.569Z,13.00
2018-12-12T11:17:09.649Z,11.23
2018-12-12T11:20:20.541Z,13.03
2018-12-12T11:23:31.491Z,11.83
2018-12-12T11:26:42.372Z,11.60
2018-12-12T11:29:53.200Z,11.10
2018-12-12T11:33:02.264Z,10.23
2018-12-12T11:36:11.250Z,8.30
2018-12-12T11:39:19.604Z,9.37
2018-12-12T11:42:28.560Z,7.77
2018-12-12T11:45:39.305Z,7.40
2018-12-12T11:48:47.435Z,8.30
2018-12-12T11:51:56.492Z,9.07
2018-12-12T11:55:07.184Z,8.87
2018-12-12T11:58:14.439Z,8.27
2018-12-12T12:01:25.238Z,9.60
2018-12-12T12:04:34.231Z,11.00
2018-12-12T12:07:38.434Z,11.90
2018-12-12T12:10:49.091Z,10.30
2018-12-12T12:14:00.125Z,10.87
2018-12-12T12:17:03.420Z,9.10
2018-12-12T12:20:12.404Z,10.37
2018-12-12T12:23:23.304Z,10.17
2018-12-12T12:26:32.594Z,10.00
2018-12-12T12:29:43.424Z,11.93
2018-12-12T12:32:54.267Z,10.93
2018-12-12T12:36:06.352Z,9.60
2018-12-12T12:39:15.426Z,9.63
2018-12-12T12:42:27.500Z,8.70
2018-12-12T12:45:39.737Z,7.87
2018-12-12T12:48:48.010Z,9.53
2018-12-12T12:51:58.552Z,8.80
2018-12-12T12:55:10.835Z,8.37
2018-12-12T12:58:14.131Z,8.20
2018-12-12T13:01:22.964Z,8.00
2018-12-12T13:04:33.941Z,8.03
2018-12-12T13:07:38.107Z,7.53
2018-12-12T13:10:46.784Z,8.40
2018-12-12T13:13:55.621Z,7.73
2018-12-12T13:16:58.995Z,9.83
2018-12-12T13:20:07.903Z,8.40
2018-12-12T13:23:18.780Z,10.30
2018-12-12T13:26:26.900Z,8.73
2018-12-12T13:29:35.944Z,9.23
2018-12-12T13:32:48.089Z,8.47
2018-12-12T13:35:58.771Z,11.60
2018-12-12T13:39:07.124Z,8.87
2018-12-12T13:42:16.099Z,9.23
2018-12-12T13:45:28.385Z,8.77
2018-12-12T13:48:36.644Z,9.57
2018-12-12T13:51:45.397Z,8.80
2018-12-12T13:54:54.484Z,9.87
2018-12-12T13:58:02.632Z,9.60
2018-12-12T14:01:13.652Z,11.83
2018-12-12T14:04:26.519Z,11.20
2018-12-12T14:07:35.643Z,10.50
2018-12-12T14:10:46.521Z,12.97
2018-12-12T14:13:58.604Z,11.87
2018-12-12T14:17:07.563Z,11.93
2018-12-12T14:20:19.733Z,11.23
2018-12-12T14:23:30.584Z,9.67
2018-12-12T14:26:38.844Z,9.03
2018-12-12T14:29:50.916Z,8.97
2018-12-12T14:33:03.167Z,9.73
2018-12-12T14:36:15.244Z,7.90
2018-12-12T14:39:27.294Z,13.70
2018-12-12T14:42:35.662Z,9.20
2018-12-12T14:45:46.471Z,8.60
2018-12-12T14:48:49.935Z,9.43
2018-12-12T14:52:00.670Z,8.77
2018-12-12T14:55:12.840Z,10.77
2018-12-12T14:58:16.931Z,10.60
2018-12-12T15:01:27.669Z,12.73
2018-12-12T15:04:38.492Z,11.23
2018-12-12T15:07:42.796Z,11.20
2018-12-12T15:10:53.576Z,12.07
2018-12-12T15:14:04.476Z,11.10
2018-12-12T15:17:07.776Z,11.10
2018-12-12T15:20:16.693Z,11.03
2018-12-12T15:23:24.856Z,11.67
2018-12-12T15:26:33.825Z,13.27
2018-12-12T15:29:42.928Z,15.20
2018-12-12T15:32:53.928Z,14.13
2018-12-12T15:36:06.052Z,16.73
2018-12-12T15:39:09.451Z,16.27
2018-12-12T15:42:18.328Z,15.97
2018-12-12T15:45:29.333Z,18.67
2018-12-12T15:48:37.723Z,17.13
2018-12-12T15:51:48.553Z,19.50
2018-12-12T15:54:56.839Z,27.23
2018-12-12T15:58:01.064Z,22.00
2018-12-12T16:01:09.767Z,22.80
2018-12-12T16:04:20.731Z,21.07
2018-12-12T16:07:28.987Z,21.20
2018-12-12T16:10:38.039Z,20.03
2018-12-12T16:13:50.136Z,21.23
2018-12-12T16:16:59.201Z,21.40
2018-12-12T16:20:10.080Z,18.17
2018-12-12T16:23:20.867Z,19.07
2018-12-12T16:26:24.169Z,17.93
2018-12-12T16:29:33.144Z,19.30
2018-12-12T16:32:43.899Z,19.47
2018-12-12T16:35:52.069Z,19.07
2018-12-12T16:39:01.167Z,21.07
2018-12-12T16:42:12.003Z,20.17
2018-12-12T16:45:20.228Z,19.13
2018-12-12T16:48:23.520Z,22.83
2018-12-12T16:51:32.560Z,14.03
2018-12-12T16:54:43.580Z,14.10
2018-12-12T16:57:52.535Z,13.77
2018-12-12T17:01:03.623Z,11.67
2018-12-12T17:04:12.684Z,11.57
2018-12-12T17:07:21.690Z,9.60
2018-12-12T17:10:33.843Z,10.73
2018-12-12T17:17:05.717Z,11.93
2018-12-12T17:20:16.452Z,13.97
2018-12-12T17:23:28.504Z,10.80
2018-12-12T17:26:36.659Z,15.70
2018-12-12T17:29:48.831Z,13.50
2018-12-12T17:32:59.597Z,11.50
2018-12-12T17:36:10.570Z,13.17
2018-12-12T17:39:22.596Z,12.13
2018-12-12T17:42:33.465Z,12.40
2018-12-12T17:45:44.408Z,10.10
2018-12-12T17:48:52.558Z,12.77
2018-12-12T17:52:03.556Z,12.03
2018-12-12T17:55:12.483Z,13.57
2018-12-12T17:58:16.680Z,11.70
2018-12-12T18:01:25.550Z,9.60
2018-12-12T18:08:02.653Z,9.67
2018-12-12T18:11:13.648Z,9.77
2018-12-12T18:14:24.183Z,8.90
2018-12-12T18:17:27.565Z,9.87
2018-12-12T18:20:36.332Z,9.10
2018-12-12T18:23:48.408Z,9.20
2018-12-12T18:26:56.544Z,8.60
2018-12-12T18:30:07.697Z,9.93
2018-12-12T18:33:15.900Z,10.20
2018-12-12T18:36:24.929Z,11.97
2018-12-12T18:39:33.896Z,12.07
2018-12-12T18:42:44.773Z,12.57
2018-12-12T18:45:55.665Z,13.47
2018-12-12T18:49:03.999Z,14.93
2018-12-12T18:52:14.689Z,14.70
2018-12-12T18:55:23.655Z,14.37
2018-12-12T18:58:27.823Z,12.00
2018-12-12T19:01:36.690Z,12.17
2018-12-12T19:04:45.733Z,11.90
2018-12-12T19:07:54.837Z,11.33
2018-12-12T19:11:03.091Z,12.00
2018-12-12T19:14:14.018Z,11.70
2018-12-12T19:17:17.423Z,12.30
2018-12-12T19:20:28.155Z,13.10
2018-12-12T19:23:36.555Z,10.77
2018-12-12T19:26:45.501Z,9.47
2018-12-12T19:29:57.567Z,11.07
2018-12-12T19:33:09.747Z,13.67
2018-12-12T19:36:18.781Z,10.80
2018-12-12T19:39:29.744Z,12.67
2018-12-12T19:42:38.806Z,10.63
2018-12-12T19:45:49.713Z,11.67
2018-12-12T19:48:58.637Z,9.43
2018-12-12T19:52:07.543Z,10.27
2018-12-12T19:55:16.511Z,9.83
2018-12-12T19:58:25.567Z,10.63
2018-12-12T20:01:36.489Z,11.00
2018-12-12T20:04:48.546Z,10.43
2018-12-12T20:07:51.755Z,8.93
2018-12-12T20:11:02.309Z,8.03
2018-12-12T20:14:10.688Z,9.70
2018-12-12T20:17:19.751Z,8.00
2018-12-12T20:20:31.812Z,9.77
2018-12-12T20:23:42.772Z,10.23
2018-12-12T20:26:50.995Z,8.90
2018-12-12T20:30:03.626Z,7.90
2018-12-12T20:33:14.154Z,7.93
2018-12-12T20:36:25.159Z,8.10
2018-12-12T20:39:36.055Z,8.03
2018-12-12T20:42:48.178Z,5.57
2018-12-12T20:45:57.264Z,5.57
2018-12-12T20:49:01.319Z,5.60
2018-12-12T20:52:10.080Z,6.67
2018-12-12T20:55:18.377Z,5.20
2018-12-12T20:58:26.508Z,7.40
2018-12-12T21:01:37.537Z,5.10
2018-12-12T21:04:45.705Z,6.47
2018-12-12T21:07:53.860Z,6.07
2018-12-12T21:11:02.896Z,5.90
2018-12-12T21:14:11.932Z,5.43
2018-12-12T21:17:16.231Z,5.80
2018-12-12T21:20:25.212Z,8.03
2018-12-12T21:23:37.323Z,6.20
2018-12-12T21:26:46.240Z,5.57
2018-12-12T21:29:58.378Z,6.27
2018-12-12T21:33:10.587Z,5.83
2018-12-12T21:36:22.664Z,6.00
2018-12-12T21:39:34.920Z,5.83
2018-12-12T21:42:43.809Z,6.80
2018-12-12T21:45:55.621Z,7.73
2018-12-12T21:49:04.783Z,6.93
2018-12-12T21:52:13.096Z,6.83
2018-12-12T21:58:46.225Z,6.13
2018-12-12T22:01:57.278Z,6.13
2018-12-12T22:05:10.417Z,5.50
2018-12-12T22:08:15.555Z,6.43
2018-12-12T22:11:29.384Z,6.80
2018-12-12T22:14:38.443Z,5.37
2018-12-12T22:17:46.711Z,5.90
2018-12-12T22:20:57.705Z,6.27
2018-12-12T22:24:09.850Z,5.77
2018-12-12T22:27:13.260Z,6.27
2018-12-12T22:30:23.996Z,6.47
2018-12-12T22:33:37.216Z,5.23
2018-12-12T22:36:46.595Z,6.33
2018-12-12T22:39:55.253Z,5.97
2018-12-12T22:43:06.314Z,5.40
2018-12-12T22:46:17.136Z,5.83
2018-12-12T22:49:25.316Z,6.30
2018-12-12T22:52:36.263Z,5.70
2018-12-12T22:55:45.359Z,5.47
2018-12-12T22:58:54.423Z,6.27
2018-12-12T23:02:05.396Z,5.40
2018-12-12T23:05:16.279Z,6.57
2018-12-12T23:08:25.229Z,5.50
2018-12-12T23:11:37.300Z,6.70
2018-12-12T23:14:49.308Z,6.27
2018-12-12T23:17:57.467Z,7.23
2018-12-12T23:21:05.771Z,6.43
2018-12-12T23:24:13.940Z,6.20
2018-12-12T23:27:22.238Z,6.47
2018-12-12T23:30:34.403Z,6.00
2018-12-12T23:33:43.460Z,5.60
2018-12-12T23:36:51.751Z,7.20
2018-12-12T23:40:02.592Z,6.63
2018-12-12T23:43:11.655Z,8.07
2018-12-12T23:46:20.425Z,6.87
2018-12-12T23:49:32.599Z,9.77
2018-12-12T23:52:41.695Z,7.40
2018-12-12T23:55:52.635Z,10.43
2018-12-12T23:59:00.776Z,8.83
